sensor_id;sensor_type;location;lat;lon;timestamp;pressure;altitude;pressure_sealevel;temperature;humidity
59419;BME280;45224;50.904;6.038;2024-03-25T00:01:10;99026.03;;;5.06;100.00
59419;BME280;45224;50.904;6.038;2024-03-25T00:02:41;99032.88;;;5.10;100.00
59419;BME280;45224;50.904;6.038;2024-03-25T00:04:12;99032.88;;;5.10;100.00
59419;BME280;45224;50.904;6.038;2024-03-25T00:05:42;99038.88;;;5.07;100.00
59419;BME280;45224;50.904;6.038;2024-03-25T00:07:13;99029.44;;;5.05;100.00
59419;BME280;45224;50.904;6.038;2024-03-25T00:08:43;99031.09;;;5.00;100.00
59419;BME280;45224;50.904;6.038;2024-03-25T00:10:14;99035.34;;;4.98;100.00
59419;BME280;45224;50.904;6.038;2024-03-25T00:11:45;99031.88;;;4.96;100.00
59419;BME280;45224;50.904;6.038;2024-03-25T00:13:15;99031.06;;;4.97;100.00
59419;BME280;45224;50.904;6.038;2024-03-25T00:14:46;99037.00;;;4.91;100.00
59419;BME280;45224;50.904;6.038;2024-03-25T00:16:16;99043.72;;;4.84;100.00
59419;BME280;45224;50.904;6.038;2024-03-25T00:17:47;99036.03;;;4.84;100.00
59419;BME280;45224;50.904;6.038;2024-03-25T00:19:17;99036.91;;;4.85;100.00
59419;BME280;45224;50.904;6.038;2024-03-25T00:20:48;99038.63;;;4.86;100.00
59419;BME280;45224;50.904;6.038;2024-03-25T00:22:19;99025.88;;;4.90;100.00
59419;BME280;45224;50.904;6.038;2024-03-25T00:23:50;99035.28;;;4.93;100.00
59419;BME280;45224;50.904;6.038;2024-03-25T00:25:20;99024.19;;;4.91;100.00
59419;BME280;45224;50.904;6.038;2024-03-25T00:26:51;99029.19;;;4.80;100.00
59419;BME280;45224;50.904;6.038;2024-03-25T00:28:22;99030.91;;;4.84;100.00
59419;BME280;45224;50.904;6.038;2024-03-25T00:29:52;99026.69;;;4.85;100.00
59419;BME280;45224;50.904;6.038;2024-03-25T00:31:23;99028.38;;;4.86;100.00
59419;BME280;45224;50.904;6.038;2024-03-25T00:32:54;99027.53;;;4.85;100.00
59419;BME280;45224;50.904;6.038;2024-03-25T00:34:25;99022.41;;;4.85;100.00
59419;BME280;45224;50.904;6.038;2024-03-25T00:35:55;99021.53;;;4.83;100.00
59419;BME280;45224;50.904;6.038;2024-03-25T00:37:25;99022.38;;;4.82;100.00
59419;BME280;45224;50.904;6.038;2024-03-25T00:38:56;99029.06;;;4.71;100.00
59419;BME280;45224;50.904;6.038;2024-03-25T00:40:26;99031.69;;;4.77;100.00
59419;BME280;45224;50.904;6.038;2024-03-25T00:41:57;99023.22;;;4.80;100.00
59419;BME280;45224;50.904;6.038;2024-03-25T00:43:28;99029.16;;;4.79;100.00
59419;BME280;45224;50.904;6.038;2024-03-25T00:44:58;99027.44;;;4.79;100.00
59419;BME280;45224;50.904;6.038;2024-03-25T00:46:29;99034.31;;;4.80;100.00
59419;BME280;45224;50.904;6.038;2024-03-25T00:48:00;99027.41;;;4.76;100.00
59419;BME280;45224;50.904;6.038;2024-03-25T00:49:30;99031.69;;;4.75;100.00
59419;BME280;45224;50.904;6.038;2024-03-25T00:51:01;99030.84;;;4.75;100.00
59419;BME280;45224;50.904;6.038;2024-03-25T00:52:31;99023.94;;;4.71;100.00
59419;BME280;45224;50.904;6.038;2024-03-25T00:54:02;99022.25;;;4.73;100.00
59419;BME280;45224;50.904;6.038;2024-03-25T00:55:33;99028.28;;;4.75;100.00
59419;BME280;45224;50.904;6.038;2024-03-25T00:57:05;99026.50;;;4.69;100.00
59419;BME280;45224;50.904;6.038;2024-03-25T00:58:36;99028.94;;;4.62;100.00
59419;BME280;45224;50.904;6.038;2024-03-25T01:00:06;99023.84;;;4.62;100.00
59419;BME280;45224;50.904;6.038;2024-03-25T01:01:38;99025.56;;;4.63;100.00
59419;BME280;45224;50.904;6.038;2024-03-25T01:03:08;99023.88;;;4.65;100.00
59419;BME280;45224;50.904;6.038;2024-03-25T01:04:38;99033.28;;;4.66;100.00
59419;BME280;45224;50.904;6.038;2024-03-25T01:06:09;99030.72;;;4.66;100.00
59419;BME280;45224;50.904;6.038;2024-03-25T01:07:39;99027.28;;;4.64;100.00
59419;BME280;45224;50.904;6.038;2024-03-25T01:09:10;99025.53;;;4.60;100.00
59419;BME280;45224;50.904;6.038;2024-03-25T01:10:40;99027.28;;;4.64;100.00
59419;BME280;45224;50.904;6.038;2024-03-25T01:12:11;99022.16;;;4.64;100.00
59419;BME280;45224;50.904;6.038;2024-03-25T01:13:41;99023.84;;;4.62;100.00
59419;BME280;45224;50.904;6.038;2024-03-25T01:15:11;99030.66;;;4.60;100.00
59419;BME280;45224;50.904;6.038;2024-03-25T01:16:42;99025.53;;;4.60;100.00
59419;BME280;45224;50.904;6.038;2024-03-25T01:18:13;99027.22;;;4.57;100.00
59419;BME280;45224;50.904;6.038;2024-03-25T01:19:43;99023.78;;;4.58;100.00
59419;BME280;45224;50.904;6.038;2024-03-25T01:21:13;99034.03;;;4.55;100.00
59419;BME280;45224;50.904;6.038;2024-03-25T01:22:45;99027.19;;;4.54;100.00
59419;BME280;45224;50.904;6.038;2024-03-25T01:24:15;99031.34;;;4.46;100.00
59419;BME280;45224;50.904;6.038;2024-03-25T01:25:46;99036.44;;;4.45;100.00
59419;BME280;45224;50.904;6.038;2024-03-25T01:27:16;99032.22;;;4.48;100.00
59419;BME280;45224;50.904;6.038;2024-03-25T01:28:46;99032.25;;;4.51;100.00
59419;BME280;45224;50.904;6.038;2024-03-25T01:30:17;99028.88;;;4.52;100.00
59419;BME280;45224;50.904;6.038;2024-03-25T01:31:49;99034.81;;;4.51;100.00
59419;BME280;45224;50.904;6.038;2024-03-25T01:33:19;99029.63;;;4.47;100.00
59419;BME280;45224;50.904;6.038;2024-03-25T01:34:50;99027.13;;;4.51;100.00
59419;BME280;45224;50.904;6.038;2024-03-25T01:36:20;99023.75;;;4.52;100.00
59419;BME280;45224;50.904;6.038;2024-03-25T01:37:51;99021.97;;;4.47;100.00
59419;BME280;45224;50.904;6.038;2024-03-25T01:39:21;99027.13;;;4.50;100.00
59419;BME280;45224;50.904;6.038;2024-03-25T01:40:52;99025.41;;;4.50;100.00
59419;BME280;45224;50.904;6.038;2024-03-25T01:42:22;99027.13;;;4.51;100.00
59419;BME280;45224;50.904;6.038;2024-03-25T01:43:53;99019.41;;;4.47;100.00
59419;BME280;45224;50.904;6.038;2024-03-25T01:45:25;99021.09;;;4.46;100.00
59419;BME280;45224;50.904;6.038;2024-03-25T01:46:55;99027.06;;;4.45;100.00
59419;BME280;45224;50.904;6.038;2024-03-25T01:48:26;99018.53;;;4.46;100.00
59419;BME280;45224;50.904;6.038;2024-03-25T01:49:56;99021.91;;;4.42;100.00
59419;BME280;45224;50.904;6.038;2024-03-25T01:51:27;99025.34;;;4.44;100.00
59419;BME280;45224;50.904;6.038;2024-03-25T01:52:58;99023.66;;;4.46;100.00
59419;BME280;45224;50.904;6.038;2024-03-25T01:54:28;99021.94;;;4.45;100.00
59419;BME280;45224;50.904;6.038;2024-03-25T01:55:59;99018.50;;;4.43;100.00
59419;BME280;45224;50.904;6.038;2024-03-25T01:57:30;99014.94;;;4.32;100.00
59419;BME280;45224;50.904;6.038;2024-03-25T01:59:00;99014.94;;;4.32;100.00
59419;BME280;45224;50.904;6.038;2024-03-25T02:00:32;99022.63;;;4.32;100.00
59419;BME280;45224;50.904;6.038;2024-03-25T02:02:03;99016.69;;;4.33;100.00
59419;BME280;45224;50.904;6.038;2024-03-25T02:03:34;99019.25;;;4.36;100.00
59419;BME280;45224;50.904;6.038;2024-03-25T02:05:05;99026.00;;;4.29;100.00
59419;BME280;45224;50.904;6.038;2024-03-25T02:06:36;99027.69;;;4.27;100.00
59419;BME280;45224;50.904;6.038;2024-03-25T02:08:07;99023.41;;;4.28;100.00
59419;BME280;45224;50.904;6.038;2024-03-25T02:09:39;99015.75;;;4.28;100.00
59419;BME280;45224;50.904;6.038;2024-03-25T02:11:10;99020.88;;;4.29;100.00
59419;BME280;45224;50.904;6.038;2024-03-25T02:12:44;99019.25;;;4.33;100.00
59419;BME280;45224;50.904;6.038;2024-03-25T02:14:15;99009.78;;;4.29;100.00
59419;BME280;45224;50.904;6.038;2024-03-25T02:15:45;99014.91;;;4.29;100.00
59419;BME280;45224;50.904;6.038;2024-03-25T02:17:16;99019.09;;;4.22;100.00
59419;BME280;45224;50.904;6.038;2024-03-25T02:18:48;99013.13;;;4.25;100.00
59419;BME280;45224;50.904;6.038;2024-03-25T02:20:18;99015.72;;;4.26;100.00
59419;BME280;45224;50.904;6.038;2024-03-25T02:21:49;99011.50;;;4.28;100.00
59419;BME280;45224;50.904;6.038;2024-03-25T02:23:19;99002.13;;;4.29;100.00
59419;BME280;45224;50.904;6.038;2024-03-25T02:24:52;99004.69;;;4.29;100.00
59419;BME280;45224;50.904;6.038;2024-03-25T02:26:23;99011.47;;;4.27;100.00
59419;BME280;45224;50.904;6.038;2024-03-25T02:27:53;99005.47;;;4.26;100.00
59419;BME280;45224;50.904;6.038;2024-03-25T02:29:33;99011.44;;;4.24;100.00
59419;BME280;45224;50.904;6.038;2024-03-25T02:31:03;99002.03;;;4.23;100.00
59419;BME280;45224;50.904;6.038;2024-03-25T02:32:34;99002.91;;;4.25;100.00
59419;BME280;45224;50.904;6.038;2024-03-25T02:34:05;99002.94;;;4.26;100.00
59419;BME280;45224;50.904;6.038;2024-03-25T02:35:37;99003.78;;;4.25;100.00
59419;BME280;45224;50.904;6.038;2024-03-25T02:37:09;99006.25;;;4.17;100.00
59419;BME280;45224;50.904;6.038;2024-03-25T02:38:40;98998.59;;;4.19;100.00
59419;BME280;45224;50.904;6.038;2024-03-25T02:40:10;98992.66;;;4.22;100.00
59419;BME280;45224;50.904;6.038;2024-03-25T02:41:41;98995.22;;;4.22;100.00
59419;BME280;45224;50.904;6.038;2024-03-25T02:43:13;98991.78;;;4.21;100.00
59419;BME280;45224;50.904;6.038;2024-03-25T02:44:44;98986.56;;;4.15;100.00
59419;BME280;45224;50.904;6.038;2024-03-25T02:46:15;99000.28;;;4.17;100.00
59419;BME280;45224;50.904;6.038;2024-03-25T02:47:46;98988.31;;;4.16;100.00
59419;BME280;45224;50.904;6.038;2024-03-25T02:49:16;98994.28;;;4.16;100.00
59419;BME280;45224;50.904;6.038;2024-03-25T02:50:47;98982.25;;;4.09;100.00
59419;BME280;45224;50.904;6.038;2024-03-25T02:52:20;98986.56;;;4.12;100.00
59419;BME280;45224;50.904;6.038;2024-03-25T02:53:51;98992.47;;;4.09;100.00
59419;BME280;45224;50.904;6.038;2024-03-25T02:55:21;98993.28;;;4.07;100.00
59419;BME280;45224;50.904;6.038;2024-03-25T02:56:52;98990.72;;;4.05;100.00
59419;BME280;45224;50.904;6.038;2024-03-25T02:58:23;98988.13;;;4.03;100.00
59419;BME280;45224;50.904;6.038;2024-03-25T02:59:53;98985.59;;;4.05;100.00
59419;BME280;45224;50.904;6.038;2024-03-25T03:01:23;98981.38;;;4.06;100.00
59419;BME280;45224;50.904;6.038;2024-03-25T03:02:54;98982.13;;;4.00;100.00
59419;BME280;45224;50.904;6.038;2024-03-25T03:04:24;98986.38;;;3.98;100.00
59419;BME280;45224;50.904;6.038;2024-03-25T03:05:55;98987.25;;;4.00;100.00
59419;BME280;45224;50.904;6.038;2024-03-25T03:07:25;98977.88;;;3.99;100.00
59419;BME280;45224;50.904;6.038;2024-03-25T03:08:55;98983.84;;;4.01;100.00
59419;BME280;45224;50.904;6.038;2024-03-25T03:10:26;98968.47;;;3.98;100.00
59419;BME280;45224;50.904;6.038;2024-03-25T03:11:56;98978.69;;;3.98;100.00
59419;BME280;45224;50.904;6.038;2024-03-25T03:13:27;98975.31;;;3.99;100.00
59419;BME280;45224;50.904;6.038;2024-03-25T03:14:57;98971.84;;;3.97;100.00
59419;BME280;45224;50.904;6.038;2024-03-25T03:16:28;98978.69;;;3.98;100.00
59419;BME280;45224;50.904;6.038;2024-03-25T03:17:59;98974.38;;;3.95;100.00
59419;BME280;45224;50.904;6.038;2024-03-25T03:19:30;98971.03;;;3.98;100.00
59419;BME280;45224;50.904;6.038;2024-03-25T03:21:00;98974.38;;;3.94;100.00
59419;BME280;45224;50.904;6.038;2024-03-25T03:22:31;98976.06;;;3.92;100.00
59419;BME280;45224;50.904;6.038;2024-03-25T03:24:03;98976.06;;;3.92;100.00
59419;BME280;45224;50.904;6.038;2024-03-25T03:25:33;98972.59;;;3.88;100.00
59419;BME280;45224;50.904;6.038;2024-03-25T03:27:04;98977.72;;;3.88;100.00
59419;BME280;45224;50.904;6.038;2024-03-25T03:28:34;98974.28;;;3.86;100.00
59419;BME280;45224;50.904;6.038;2024-03-25T03:30:05;98969.16;;;3.86;100.00
59419;BME280;45224;50.904;6.038;2024-03-25T03:31:36;98973.41;;;3.86;100.00
59419;BME280;45224;50.904;6.038;2024-03-25T03:33:07;98973.41;;;3.86;100.00
59419;BME280;45224;50.904;6.038;2024-03-25T03:34:37;98974.25;;;3.84;100.00
59419;BME280;45224;50.904;6.038;2024-03-25T03:36:08;98973.41;;;3.86;100.00
59419;BME280;45224;50.904;6.038;2024-03-25T03:37:38;98968.25;;;3.84;100.00
59419;BME280;45224;50.904;6.038;2024-03-25T03:39:08;98976.81;;;3.84;100.00
59419;BME280;45224;50.904;6.038;2024-03-25T03:40:39;98973.34;;;3.82;100.00
59419;BME280;45224;50.904;6.038;2024-03-25T03:42:10;98977.63;;;3.83;100.00
59419;BME280;45224;50.904;6.038;2024-03-25T03:43:40;98976.78;;;3.83;100.00
59419;BME280;45224;50.904;6.038;2024-03-25T03:45:10;98971.69;;;3.84;100.00
59419;BME280;45224;50.904;6.038;2024-03-25T03:46:42;98965.72;;;3.84;100.00
59419;BME280;45224;50.904;6.038;2024-03-25T03:48:13;98974.22;;;3.81;100.00
59419;BME280;45224;50.904;6.038;2024-03-25T03:49:43;98966.53;;;3.81;100.00
59419;BME280;45224;50.904;6.038;2024-03-25T03:51:13;98971.66;;;3.81;100.00
59419;BME280;45224;50.904;6.038;2024-03-25T03:52:44;98976.78;;;3.81;100.00
59419;BME280;45224;50.904;6.038;2024-03-25T03:54:14;98972.50;;;3.82;100.00
59419;BME280;45224;50.904;6.038;2024-03-25T03:55:58;98963.13;;;3.82;100.00
59419;BME280;45224;50.904;6.038;2024-03-25T03:57:28;98969.13;;;3.83;100.00
59419;BME280;45224;50.904;6.038;2024-03-25T03:58:59;98958.00;;;3.82;100.00
59419;BME280;45224;50.904;6.038;2024-03-25T04:00:29;98956.31;;;3.81;100.00
59419;BME280;45224;50.904;6.038;2024-03-25T04:01:59;98958.81;;;3.78;100.00
59419;BME280;45224;50.904;6.038;2024-03-25T04:03:30;98957.13;;;3.79;100.00
59419;BME280;45224;50.904;6.038;2024-03-25T04:05:00;98957.06;;;3.76;100.00
59419;BME280;45224;50.904;6.038;2024-03-25T04:06:32;98945.16;;;3.75;100.00
59419;BME280;45224;50.904;6.038;2024-03-25T04:08:02;98951.94;;;3.74;100.00
59419;BME280;45224;50.904;6.038;2024-03-25T04:09:33;98952.81;;;3.75;100.00
59419;BME280;45224;50.904;6.038;2024-03-25T04:11:04;98956.22;;;3.75;100.00
59419;BME280;45224;50.904;6.038;2024-03-25T04:12:36;98952.78;;;3.73;100.00
59419;BME280;45224;50.904;6.038;2024-03-25T04:14:10;98952.78;;;3.73;100.00
59419;BME280;45224;50.904;6.038;2024-03-25T04:15:41;98955.31;;;3.70;100.00
59419;BME280;45224;50.904;6.038;2024-03-25T04:17:12;98954.44;;;3.71;100.00
59419;BME280;45224;50.904;6.038;2024-03-25T04:18:42;98951.88;;;3.70;100.00
59419;BME280;45224;50.904;6.038;2024-03-25T04:20:13;98957.81;;;3.67;100.00
59419;BME280;45224;50.904;6.038;2024-03-25T04:21:44;98956.09;;;3.66;100.00
59419;BME280;45224;50.904;6.038;2024-03-25T04:23:15;98962.03;;;3.66;100.00
59419;BME280;45224;50.904;6.038;2024-03-25T04:24:45;98957.78;;;3.65;100.00
59419;BME280;45224;50.904;6.038;2024-03-25T04:26:16;98960.31;;;3.64;100.00
59419;BME280;45224;50.904;6.038;2024-03-25T04:27:46;98958.56;;;3.61;100.00
59419;BME280;45224;50.904;6.038;2024-03-25T04:29:17;98957.72;;;3.61;100.00
59419;BME280;45224;50.904;6.038;2024-03-25T04:30:54;98954.28;;;3.59;100.00
59419;BME280;45224;50.904;6.038;2024-03-25T04:32:25;98955.94;;;3.57;100.00
59419;BME280;45224;50.904;6.038;2024-03-25T04:33:55;98955.94;;;3.57;100.00
59419;BME280;45224;50.904;6.038;2024-03-25T04:35:26;98960.19;;;3.55;100.00
59419;BME280;45224;50.904;6.038;2024-03-25T04:36:57;98956.78;;;3.54;100.00
59419;BME280;45224;50.904;6.038;2024-03-25T04:38:27;98957.56;;;3.52;100.00
59419;BME280;45224;50.904;6.038;2024-03-25T04:39:57;98954.13;;;3.48;100.00
59419;BME280;45224;50.904;6.038;2024-03-25T04:41:28;98958.34;;;3.44;100.00
59419;BME280;45224;50.904;6.038;2024-03-25T04:42:59;98948.09;;;3.43;100.00
59419;BME280;45224;50.904;6.038;2024-03-25T04:44:29;98955.72;;;3.41;100.00
59419;BME280;45224;50.904;6.038;2024-03-25T04:46:03;98953.97;;;3.39;100.00
59419;BME280;45224;50.904;6.038;2024-03-25T04:47:33;98951.38;;;3.36;100.00
59419;BME280;45224;50.904;6.038;2024-03-25T04:49:04;98953.91;;;3.34;100.00
59419;BME280;45224;50.904;6.038;2024-03-25T04:50:34;98955.63;;;3.35;100.00
59419;BME280;45224;50.904;6.038;2024-03-25T04:52:04;98946.19;;;3.29;100.00
59419;BME280;45224;50.904;6.038;2024-03-25T04:53:35;98953.00;;;3.31;100.00
59419;BME280;45224;50.904;6.038;2024-03-25T04:55:05;98952.97;;;3.29;100.00
59419;BME280;45224;50.904;6.038;2024-03-25T04:56:36;98951.28;;;3.28;100.00
59419;BME280;45224;50.904;6.038;2024-03-25T04:58:06;98949.50;;;3.25;100.00
59419;BME280;45224;50.904;6.038;2024-03-25T04:59:37;98948.66;;;3.25;100.00
59419;BME280;45224;50.904;6.038;2024-03-25T05:01:07;98940.09;;;3.23;100.00
59419;BME280;45224;50.904;6.038;2024-03-25T05:02:38;98945.16;;;3.18;100.00
59419;BME280;45224;50.904;6.038;2024-03-25T05:04:09;98948.56;;;3.19;100.00
59419;BME280;45224;50.904;6.038;2024-03-25T05:05:39;98947.69;;;3.17;100.00
59419;BME280;45224;50.904;6.038;2024-03-25T05:07:10;98953.63;;;3.16;100.00
59419;BME280;45224;50.904;6.038;2024-03-25T05:08:40;98956.13;;;3.13;100.00
59419;BME280;45224;50.904;6.038;2024-03-25T05:10:11;98956.94;;;3.11;100.00
59419;BME280;45224;50.904;6.038;2024-03-25T05:11:41;98959.47;;;3.10;100.00
59419;BME280;45224;50.904;6.038;2024-03-25T05:13:12;98958.59;;;3.08;100.00
59419;BME280;45224;50.904;6.038;2024-03-25T05:14:42;98957.75;;;3.07;100.00
59419;BME280;45224;50.904;6.038;2024-03-25T05:16:13;98958.56;;;3.06;100.00
59419;BME280;45224;50.904;6.038;2024-03-25T05:17:43;98953.47;;;3.06;100.00
59419;BME280;45224;50.904;6.038;2024-03-25T05:19:13;98944.06;;;3.04;100.00
59419;BME280;45224;50.904;6.038;2024-03-25T05:20:45;98953.44;;;3.05;100.00
59419;BME280;45224;50.904;6.038;2024-03-25T05:22:16;98955.13;;;3.04;100.00
59419;BME280;45224;50.904;6.038;2024-03-25T05:23:46;98956.81;;;3.02;100.00
59419;BME280;45224;50.904;6.038;2024-03-25T05:25:16;98953.34;;;3.00;100.00
59419;BME280;45224;50.904;6.038;2024-03-25T05:26:47;98959.31;;;2.99;100.00
59419;BME280;45224;50.904;6.038;2024-03-25T05:28:17;98956.75;;;2.99;100.00
59419;BME280;45224;50.904;6.038;2024-03-25T05:29:49;98952.41;;;2.95;100.00
59419;BME280;45224;50.904;6.038;2024-03-25T05:31:19;98956.69;;;2.96;100.00
59419;BME280;45224;50.904;6.038;2024-03-25T05:32:50;98958.44;;;2.99;100.00
59419;BME280;45224;50.904;6.038;2024-03-25T05:34:20;98958.41;;;2.96;100.00
59419;BME280;45224;50.904;6.038;2024-03-25T05:35:51;98955.88;;;2.97;100.00
59419;BME280;45224;50.904;6.038;2024-03-25T05:37:21;98960.19;;;3.01;100.00
59419;BME280;45224;50.904;6.038;2024-03-25T05:38:52;98965.22;;;2.97;100.00
59419;BME280;45224;50.904;6.038;2024-03-25T05:40:22;98972.94;;;3.00;100.00
59419;BME280;45224;50.904;6.038;2024-03-25T05:41:52;98973.84;;;3.05;100.00
59419;BME280;45224;50.904;6.038;2024-03-25T05:43:23;98968.78;;;3.06;100.00
59419;BME280;45224;50.904;6.038;2024-03-25T05:44:53;98967.97;;;3.07;100.00
59419;BME280;45224;50.904;6.038;2024-03-25T05:46:24;98967.13;;;3.08;100.00
59419;BME280;45224;50.904;6.038;2024-03-25T05:47:54;98969.69;;;3.08;100.00
59419;BME280;45224;50.904;6.038;2024-03-25T05:49:24;98964.59;;;3.08;100.00
59419;BME280;45224;50.904;6.038;2024-03-25T05:52:28;98972.19;;;3.05;100.00
59419;BME280;45224;50.904;6.038;2024-03-25T05:53:59;98963.72;;;3.09;100.00
59419;BME280;45224;50.904;6.038;2024-03-25T05:55:30;98968.13;;;3.17;100.00
59419;BME280;45224;50.904;6.038;2024-03-25T05:57:00;98970.69;;;3.18;100.00
59419;BME280;45224;50.904;6.038;2024-03-25T05:58:31;98973.34;;;3.24;100.00
59419;BME280;45224;50.904;6.038;2024-03-25T06:00:02;98966.56;;;3.25;100.00
59419;BME280;45224;50.904;6.038;2024-03-25T06:01:42;98964.03;;;3.28;100.00
59419;BME280;45224;50.904;6.038;2024-03-25T06:03:12;98969.19;;;3.33;100.00
59419;BME280;45224;50.904;6.038;2024-03-25T06:04:43;98966.66;;;3.34;100.00
59419;BME280;45224;50.904;6.038;2024-03-25T06:06:13;98969.28;;;3.37;100.00
59419;BME280;45224;50.904;6.038;2024-03-25T06:07:43;98963.31;;;3.37;100.00
59419;BME280;45224;50.904;6.038;2024-03-25T06:09:14;98976.16;;;3.40;100.00
59419;BME280;45224;50.904;6.038;2024-03-25T06:10:44;98970.16;;;3.38;100.00
59419;BME280;45224;50.904;6.038;2024-03-25T06:12:15;98965.13;;;3.42;100.00
59419;BME280;45224;50.904;6.038;2024-03-25T06:13:46;98977.03;;;3.42;100.00
59419;BME280;45224;50.904;6.038;2024-03-25T06:15:17;98971.09;;;3.43;100.00
59419;BME280;45224;50.904;6.038;2024-03-25T06:16:48;98965.94;;;3.41;100.00
59419;BME280;45224;50.904;6.038;2024-03-25T06:18:19;98971.16;;;3.47;100.00
59419;BME280;45224;50.904;6.038;2024-03-25T06:19:49;98973.81;;;3.54;100.00
59419;BME280;45224;50.904;6.038;2024-03-25T06:21:22;98962.66;;;3.50;100.00
59419;BME280;45224;50.904;6.038;2024-03-25T06:22:53;98971.25;;;3.54;100.00
59419;BME280;45224;50.904;6.038;2024-03-25T06:24:24;98963.66;;;3.60;100.00
59419;BME280;45224;50.904;6.038;2024-03-25T06:25:55;98959.50;;;3.65;100.00
59419;BME280;45224;50.904;6.038;2024-03-25T06:27:26;98955.31;;;3.70;100.00
59419;BME280;45224;50.904;6.038;2024-03-25T06:28:58;98951.19;;;3.80;100.00
59419;BME280;45224;50.904;6.038;2024-03-25T06:30:28;98951.28;;;3.88;100.00
59419;BME280;45224;50.904;6.038;2024-03-25T06:32:17;98956.50;;;3.97;100.00
59419;BME280;45224;50.904;6.038;2024-03-25T06:34:06;98954.94;;;4.08;100.00
59419;BME280;45224;50.904;6.038;2024-03-25T06:35:50;98951.69;;;4.18;100.00
59419;BME280;45224;50.904;6.038;2024-03-25T06:37:20;98956.06;;;4.29;100.00
59419;BME280;45224;50.904;6.038;2024-03-25T06:38:50;98957.06;;;4.43;100.00
59419;BME280;45224;50.904;6.038;2024-03-25T06:40:21;98954.59;;;4.51;100.00
59419;BME280;45224;50.904;6.038;2024-03-25T06:41:52;98958.13;;;4.61;100.00
59419;BME280;45224;50.904;6.038;2024-03-25T06:43:22;98958.25;;;4.74;100.00
59419;BME280;45224;50.904;6.038;2024-03-25T06:44:53;98961.78;;;4.87;100.00
59419;BME280;45224;50.904;6.038;2024-03-25T06:46:23;98955.91;;;4.94;100.00
59419;BME280;45224;50.904;6.038;2024-03-25T06:47:54;98962.81;;;5.06;100.00
59419;BME280;45224;50.904;6.038;2024-03-25T06:49:24;98957.78;;;5.14;100.00
59419;BME280;45224;50.904;6.038;2024-03-25T06:50:56;98962.16;;;5.29;100.00
59419;BME280;45224;50.904;6.038;2024-03-25T06:52:26;98958.81;;;5.41;100.00
59419;BME280;45224;50.904;6.038;2024-03-25T06:53:57;98954.66;;;5.55;100.00
59419;BME280;45224;50.904;6.038;2024-03-25T06:55:27;98951.31;;;5.65;100.00
59419;BME280;45224;50.904;6.038;2024-03-25T06:56:58;98951.38;;;5.72;100.00
59419;BME280;45224;50.904;6.038;2024-03-25T06:58:29;98951.44;;;5.84;100.00
59419;BME280;45224;50.904;6.038;2024-03-25T06:59:59;98956.59;;;5.90;100.00
59419;BME280;45224;50.904;6.038;2024-03-25T07:01:30;98960.09;;;6.01;100.00
59419;BME280;45224;50.904;6.038;2024-03-25T07:03:00;98953.25;;;6.00;100.00
59419;BME280;45224;50.904;6.038;2024-03-25T07:04:31;98945.59;;;6.11;100.00
59419;BME280;45224;50.904;6.038;2024-03-25T07:06:03;98951.66;;;6.24;100.00
59419;BME280;45224;50.904;6.038;2024-03-25T07:07:34;98946.56;;;6.30;100.00
59419;BME280;45224;50.904;6.038;2024-03-25T07:09:04;98948.31;;;6.44;100.00
59419;BME280;45224;50.904;6.038;2024-03-25T07:10:34;98944.06;;;6.55;100.00
59419;BME280;45224;50.904;6.038;2024-03-25T07:12:05;98944.94;;;6.63;100.00
59419;BME280;45224;50.904;6.038;2024-03-25T07:13:36;98945.81;;;6.74;100.00
59419;BME280;45224;50.904;6.038;2024-03-25T07:15:07;98936.41;;;6.83;100.00
59419;BME280;45224;50.904;6.038;2024-03-25T07:16:38;98938.13;;;6.90;100.00
59419;BME280;45224;50.904;6.038;2024-03-25T07:18:08;98937.28;;;6.99;100.00
59419;BME280;45224;50.904;6.038;2024-03-25T07:19:41;98943.28;;;7.05;100.00
59419;BME280;45224;50.904;6.038;2024-03-25T07:21:11;98941.56;;;7.10;99.78
59419;BME280;45224;50.904;6.038;2024-03-25T07:22:41;98945.84;;;7.15;98.99
59419;BME280;45224;50.904;6.038;2024-03-25T07:24:12;98945.00;;;7.31;99.64
59419;BME280;45224;50.904;6.038;2024-03-25T07:25:42;98949.28;;;7.30;99.18
59419;BME280;45224;50.904;6.038;2024-03-25T07:27:13;98940.69;;;7.36;99.44
59419;BME280;45224;50.904;6.038;2024-03-25T07:28:43;98941.56;;;7.34;98.22
59419;BME280;45224;50.904;6.038;2024-03-25T07:30:14;98947.56;;;7.45;98.45
59419;BME280;45224;50.904;6.038;2024-03-25T07:31:44;98954.44;;;7.41;97.96
59419;BME280;45224;50.904;6.038;2024-03-25T07:33:15;98953.56;;;7.39;97.03
59419;BME280;45224;50.904;6.038;2024-03-25T07:34:46;98957.00;;;7.41;96.83
59419;BME280;45224;50.904;6.038;2024-03-25T07:36:16;98945.00;;;7.40;98.05
59419;BME280;45224;50.904;6.038;2024-03-25T07:37:47;98951.84;;;7.47;97.53
59419;BME280;45224;50.904;6.038;2024-03-25T07:39:21;98950.09;;;7.56;97.20
59419;BME280;45224;50.904;6.038;2024-03-25T07:40:54;98949.25;;;7.60;96.57
59419;BME280;45224;50.904;6.038;2024-03-25T07:42:24;98944.97;;;7.59;96.20
59419;BME280;45224;50.904;6.038;2024-03-25T07:43:55;98947.53;;;7.71;95.83
59419;BME280;45224;50.904;6.038;2024-03-25T07:45:25;98943.22;;;7.79;96.04
59419;BME280;45224;50.904;6.038;2024-03-25T07:46:56;98948.34;;;7.89;96.45
59419;BME280;45224;50.904;6.038;2024-03-25T07:48:27;98942.31;;;7.96;95.62
59419;BME280;45224;50.904;6.038;2024-03-25T07:49:58;98936.31;;;8.01;95.06
59419;BME280;45224;50.904;6.038;2024-03-25T07:51:29;98936.28;;;8.12;94.73
59419;BME280;45224;50.904;6.038;2024-03-25T07:52:59;98936.28;;;8.12;93.03
59419;BME280;45224;50.904;6.038;2024-03-25T07:54:30;98938.78;;;8.18;92.64
59419;BME280;45224;50.904;6.038;2024-03-25T07:56:00;98943.94;;;8.23;92.27
59419;BME280;45224;50.904;6.038;2024-03-25T07:57:31;98934.47;;;8.30;92.56
59419;BME280;45224;50.904;6.038;2024-03-25T07:59:02;98937.84;;;8.36;92.45
59419;BME280;45224;50.904;6.038;2024-03-25T08:00:32;98942.16;;;8.39;91.80
59419;BME280;45224;50.904;6.038;2024-03-25T08:02:05;98935.28;;;8.44;91.71
59419;BME280;45224;50.904;6.038;2024-03-25T08:03:36;98938.66;;;8.57;91.62